Архив погоды на Мысе Болванском

Метеограмма Мыс Болванский
Вторник, 14 Августа
Время местн. Темп Ветер Видим Явления Облачность нижн/средн/верх Атм. давл. Влжн Точка росы ВНГО R Сост. почвы Tg s
Напр Скр Прв ур.ст ур.м изм
15:00 +6.9° С,С-З 3 - 10 км - облачно 744 745 +1.4 97% +6.4° 1 км - - - -
12:00 +6.8° С 3 - 10 км - облачно 742 743 +1.4 97% +6.3° 1 км - - - -
09:00 +6° С-В 3 - 10 км морось или снежные зерна {дождь} облачно 741 742 +0.4 98% +5.7° 600 м - - - -
06:00 +5.8° С,С-В 4 - 4 км дымка облачно 741 741 -0.2 100% +5.8° 1 км 0.1 Влажная (без луж) - -
03:00 +5.4° В,Ю-В 2 - 10 км небо без изменений {ливневые осадки} облачно 741 742 -0.6 99% +5.2° 1 км - - - -
00:00 +5° В 4 - 10 км - облачно 741 742 -1.2 97% +4.6° 1 км - - - -
Понедельник, 13 Августа
Время местн. Темп Ветер Видим Явления Облачность нижн/средн/верх Атм. давл. Влжн Точка росы ВНГО R Сост. почвы Tg s
Напр Скр Прв ур.ст ур.м изм
21:00 +5.6° штиль 0 - 10 км - облачно 743 744 -1.7 93% +4.6° 1 км - - - -
18:00 +7° З 5 - 20 км - облачно 744 745 -0.2 85% +4.6° 1 км 0 - - -
15:00 +7.8° З 8 10 10 км - облачно 744 745 -0.6 86% +5.6° 600 м - - - -
12:00 +7° З,С-З 8 10 10 км - облачно 745 746 -0.5 87% +5° 600 м - - - -
09:00 +6.5° З 7 - 4 км дымка облачно 745 746 0 100% +6.5° 600 м - - - -
06:00 +6.1° З,С-З 5 - 4 км дымка облачно 745 746 -0.5 100% +6.1° 300 м 0 Влажная (без луж) - -
03:00 +5.9° З,С-З 6 - 10 км - облачно 746 747 -0.4 99% +5.8° 1 км - - - -
00:00 +6.4° З,С-З 7 - 10 км - облачно 746 747 -0.5 98% +6.1° 1 км - - - -
Воскресенье, 12 Августа
Время местн. Темп Ветер Видим Явления Облачность нижн/средн/верх Атм. давл. Влжн Точка росы ВНГО R Сост. почвы Tg s
Напр Скр Прв ур.ст ур.м изм
21:00 +6.7° З,С-З 6 - 10 км - облачно 747 748 -0.6 98% +6.4° 1 км - - - -
18:00 +6.8° З 8 - 10 км - облачно 747 748 -0.9 96% +6.2° 1 км 0 - - -
15:00 +6.4° З,С-З 5 - 10 км - облачно 748 749 +0.2 95% +5.7° - - - - -
12:00 +5.7° С,С-З 5 - 10 км - облачно 748 749 +0.1 99% +5.5° - - - - -
09:00 +5.4° С,С-З 5 - 10 км небо без изменений {туман} облачно 748 749 -0.3 99% +5.3° - - - - -
06:00 +4.8° С 6 - 10 км небо без изменений {туман} облачно 748 749 +0.2 100% +4.8° 600 м 0 Влажная (без луж) +5° -
03:00 +4.2° С 7 - 0.5 км туман неба не видно 748 749 -0.1 100% +4.2° - - - - -
00:00 +4.5° С 8 11 4 км туман облачно 748 749 +0.3 100% +4.5° 300 м - - - -
Суббота, 11 Августа
Время местн. Темп Ветер Видим Явления Облачность нижн/средн/верх Атм. давл. Влжн Точка росы ВНГО R Сост. почвы Tg s
Напр Скр Прв ур.ст ур.м изм
21:00 +4.9° С 6 - 10 км - облачно 748 749 +0.2 100% +4.9° 600 м - - - -
18:00 +6° С 6 - 10 км - облачно 748 749 0 95% +5.2° более 2.5 км 0 - - -
15:00 +6.6° С 6 - 10 км - облачно 748 749 +0.3 93% +5.5° - - - - -
12:00 +6.3° С,С-З 6 - 10 км - облачно 747 748 +0.5 94% +5.4° 600 м - - - -